sensor_id;sensor_type;location;lat;lon;timestamp;pressure;altitude;pressure_sealevel;temperature
70389;BMP280;58659;49.050;8.530;2023-02-28T00:01:30;100768.91;;;-1.91
70389;BMP280;58659;49.050;8.530;2023-02-28T00:03:55;100763.97;;;-1.98
70389;BMP280;58659;49.050;8.530;2023-02-28T00:06:21;100757.56;;;-1.95
70389;BMP280;58659;49.050;8.530;2023-02-28T00:08:46;100760.69;;;-1.93
70389;BMP280;58659;49.050;8.530;2023-02-28T00:11:14;100765.81;;;-1.93
70389;BMP280;58659;49.050;8.530;2023-02-28T00:13:42;100755.28;;;-1.97
70389;BMP280;58659;49.050;8.530;2023-02-28T00:16:10;100760.56;;;-2.04
70389;BMP280;58659;49.050;8.530;2023-02-28T00:18:37;100764.41;;;-2.01
70389;BMP280;58659;49.050;8.530;2023-02-28T00:21:03;100760.56;;;-2.04
70389;BMP280;58659;49.050;8.530;2023-02-28T00:23:28;100750.00;;;-2.07
70389;BMP280;58659;49.050;8.530;2023-02-28T00:25:53;100763.34;;;-2.05
70389;BMP280;58659;49.050;8.530;2023-02-28T00:28:19;100768.41;;;-2.10
70389;BMP280;58659;49.050;8.530;2023-02-28T00:30:44;100763.75;;;-2.13
70389;BMP280;58659;49.050;8.530;2023-02-28T00:33:10;100759.16;;;-2.11
70389;BMP280;58659;49.050;8.530;2023-02-28T00:35:35;100760.94;;;-2.12
70389;BMP280;58659;49.050;8.530;2023-02-28T00:38:01;100754.50;;;-2.14
70389;BMP280;58659;49.050;8.530;2023-02-28T00:40:26;100755.75;;;-2.17
70389;BMP280;58659;49.050;8.530;2023-02-28T00:42:52;100760.66;;;-2.15
70389;BMP280;58659;49.050;8.530;2023-02-28T00:45:17;100767.41;;;-2.09
70389;BMP280;58659;49.050;8.530;2023-02-28T00:47:44;100759.16;;;-2.11
70389;BMP280;58659;49.050;8.530;2023-02-28T00:50:11;100771.47;;;-2.08
70389;BMP280;58659;49.050;8.530;2023-02-28T00:52:37;100768.19;;;-2.09
70389;BMP280;58659;49.050;8.530;2023-02-28T00:55:02;100767.41;;;-2.09
70389;BMP280;58659;49.050;8.530;2023-02-28T00:57:27;100763.50;;;-2.12
70389;BMP280;58659;49.050;8.530;2023-02-28T00:59:53;100761.97;;;-2.13
70389;BMP280;58659;49.050;8.530;2023-02-28T01:02:20;100767.84;;;-2.12
70389;BMP280;58659;49.050;8.530;2023-02-28T01:04:46;100766.84;;;-2.11
70389;BMP280;58659;49.050;8.530;2023-02-28T01:07:11;100769.41;;;-2.11
70389;BMP280;58659;49.050;8.530;2023-02-28T01:09:37;100768.63;;;-2.12
70389;BMP280;58659;49.050;8.530;2023-02-28T01:12:02;100762.97;;;-2.14
70389;BMP280;58659;49.050;8.530;2023-02-28T01:14:28;100762.66;;;-2.17
70389;BMP280;58659;49.050;8.530;2023-02-28T01:16:53;100758.25;;;-2.22
70389;BMP280;58659;49.050;8.530;2023-02-28T01:19:18;100764.94;;;-2.21
70389;BMP280;58659;49.050;8.530;2023-02-28T01:21:43;100763.91;;;-2.20
70389;BMP280;58659;49.050;8.530;2023-02-28T01:24:09;100763.22;;;-2.15
70389;BMP280;58659;49.050;8.530;2023-02-28T01:26:34;100764.00;;;-2.15
70389;BMP280;58659;49.050;8.530;2023-02-28T01:28:59;100757.31;;;-2.16
70389;BMP280;58659;49.050;8.530;2023-02-28T01:31:25;100758.09;;;-2.15
70389;BMP280;58659;49.050;8.530;2023-02-28T01:33:50;100751.94;;;-2.14
70389;BMP280;58659;49.050;8.530;2023-02-28T01:36:25;100763.22;;;-2.15
70389;BMP280;58659;49.050;8.530;2023-02-28T01:38:50;100755.22;;;-2.19
70389;BMP280;58659;49.050;8.530;2023-02-28T01:41:21;100763.91;;;-2.20
70389;BMP280;58659;49.050;8.530;2023-02-28T01:46:14;100752.53;;;-2.29
70389;BMP280;58659;49.050;8.530;2023-02-28T01:49:06;100744.84;;;-2.29
70389;BMP280;58659;49.050;8.530;2023-02-28T01:51:48;100752.03;;;-2.26
70389;BMP280;58659;49.050;8.530;2023-02-28T01:54:22;100741.81;;;-2.26
70389;BMP280;58659;49.050;8.530;2023-02-28T01:56:53;100744.84;;;-2.29
70389;BMP280;58659;49.050;8.530;2023-02-28T01:59:27;100741.28;;;-2.28
70389;BMP280;58659;49.050;8.530;2023-02-28T02:01:53;100738.25;;;-2.25
70389;BMP280;58659;49.050;8.530;2023-02-28T02:04:19;100745.97;;;-2.20
70389;BMP280;58659;49.050;8.530;2023-02-28T02:06:47;100737.31;;;-2.19
70389;BMP280;58659;49.050;8.530;2023-02-28T02:09:13;100729.09;;;-2.21
70389;BMP280;58659;49.050;8.530;2023-02-28T02:11:40;100729.09;;;-2.21
70389;BMP280;58659;49.050;8.530;2023-02-28T02:17:39;100723.66;;;-2.24
70389;BMP280;58659;49.050;8.530;2023-02-28T02:26:22;100729.50;;;-2.29
70389;BMP280;58659;49.050;8.530;2023-02-28T02:29:18;100729.56;;;-2.24
70389;BMP280;58659;49.050;8.530;2023-02-28T02:31:50;100726.00;;;-2.23
70389;BMP280;58659;49.050;8.530;2023-02-28T02:34:31;100725.03;;;-2.17
70389;BMP280;58659;49.050;8.530;2023-02-28T02:39:47;100726.22;;;-2.24
70389;BMP280;58659;49.050;8.530;2023-02-28T02:42:19;100732.19;;;-2.19
70389;BMP280;58659;49.050;8.530;2023-02-28T02:44:57;100731.66;;;-2.21
70389;BMP280;58659;49.050;8.530;2023-02-28T02:47:24;100727.53;;;-2.22
70389;BMP280;58659;49.050;8.530;2023-02-28T02:49:57;100727.00;;;-2.24
70389;BMP280;58659;49.050;8.530;2023-02-28T02:52:30;100736.00;;;-2.21
70389;BMP280;58659;49.050;8.530;2023-02-28T02:54:58;100728.69;;;-2.29
70389;BMP280;58659;49.050;8.530;2023-02-28T02:57:35;100730.47;;;-2.30
70389;BMP280;58659;49.050;8.530;2023-02-28T03:00:03;100724.78;;;-2.32
70389;BMP280;58659;49.050;8.530;2023-02-28T03:02:31;100728.47;;;-2.28
70389;BMP280;58659;49.050;8.530;2023-02-28T03:05:02;100731.09;;;-2.23
70389;BMP280;58659;49.050;8.530;2023-02-28T03:07:29;100728.31;;;-2.21
70389;BMP280;58659;49.050;8.530;2023-02-28T03:09:56;100732.94;;;-2.18
70389;BMP280;58659;49.050;8.530;2023-02-28T03:12:46;100732.25;;;-2.14
70389;BMP280;58659;49.050;8.530;2023-02-28T03:15:24;100735.72;;;-2.03
70389;BMP280;58659;49.050;8.530;2023-02-28T03:20:27;100730.34;;;-2.02
70389;BMP280;58659;49.050;8.530;2023-02-28T03:23:04;100729.13;;;-1.99
70389;BMP280;58659;49.050;8.530;2023-02-28T03:28:51;100730.00;;;-1.88
70389;BMP280;58659;49.050;8.530;2023-02-28T03:31:33;100730.88;;;-1.83
70389;BMP280;58659;49.050;8.530;2023-02-28T03:36:56;100722.47;;;-1.78
70389;BMP280;58659;49.050;8.530;2023-02-28T03:39:49;100723.84;;;-1.71
70389;BMP280;58659;49.050;8.530;2023-02-28T03:42:23;100730.34;;;-1.63
70389;BMP280;58659;49.050;8.530;2023-02-28T03:44:54;100718.56;;;-1.64
70389;BMP280;58659;49.050;8.530;2023-02-28T03:47:28;100718.59;;;-1.59
70389;BMP280;58659;49.050;8.530;2023-02-28T03:52:26;100726.34;;;-1.54
70389;BMP280;58659;49.050;8.530;2023-02-28T03:54:56;100723.31;;;-1.51
70389;BMP280;58659;49.050;8.530;2023-02-28T04:00:05;100725.44;;;-1.43
70389;BMP280;58659;49.050;8.530;2023-02-28T04:02:32;100711.75;;;-1.53
70389;BMP280;58659;49.050;8.530;2023-02-28T04:04:57;100723.41;;;-1.41
70389;BMP280;58659;49.050;8.530;2023-02-28T04:07:53;100722.16;;;-1.38
70389;BMP280;58659;49.050;8.530;2023-02-28T04:10:39;100716.03;;;-1.37
70389;BMP280;58659;49.050;8.530;2023-02-28T04:13:04;100714.22;;;-1.37
70389;BMP280;58659;49.050;8.530;2023-02-28T04:15:29;100718.88;;;-1.34
70389;BMP280;58659;49.050;8.530;2023-02-28T04:17:55;100715.34;;;-1.33
70389;BMP280;58659;49.050;8.530;2023-02-28T04:20:20;100721.16;;;-1.37
70389;BMP280;58659;49.050;8.530;2023-02-28T04:22:45;100731.50;;;-1.32
70389;BMP280;58659;49.050;8.530;2023-02-28T04:25:11;100735.34;;;-1.30
70389;BMP280;58659;49.050;8.530;2023-02-28T04:27:36;100726.91;;;-1.25
70389;BMP280;58659;49.050;8.530;2023-02-28T04:30:02;100717.94;;;-1.28
70389;BMP280;58659;49.050;8.530;2023-02-28T04:32:27;100731.81;;;-1.24
70389;BMP280;58659;49.050;8.530;2023-02-28T04:34:53;100731.31;;;-1.26
70389;BMP280;58659;49.050;8.530;2023-02-28T04:37:18;100719.50;;;-1.27
70389;BMP280;58659;49.050;8.530;2023-02-28T04:39:43;100726.03;;;-1.36
70389;BMP280;58659;49.050;8.530;2023-02-28T04:42:10;100724.00;;;-1.34
70389;BMP280;58659;49.050;8.530;2023-02-28T04:44:35;100718.81;;;-1.39
70389;BMP280;58659;49.050;8.530;2023-02-28T04:47:01;100729.31;;;-1.40
70389;BMP280;58659;49.050;8.530;2023-02-28T04:49:26;100722.81;;;-1.48
70389;BMP280;58659;49.050;8.530;2023-02-28T04:51:51;100727.34;;;-1.55
70389;BMP280;58659;49.050;8.530;2023-02-28T04:54:18;100717.66;;;-1.53
70389;BMP280;58659;49.050;8.530;2023-02-28T04:56:43;100713.25;;;-1.57
70389;BMP280;58659;49.050;8.530;2023-02-28T04:59:08;100717.09;;;-1.55
70389;BMP280;58659;49.050;8.530;2023-02-28T05:01:34;100726.78;;;-1.62
70389;BMP280;58659;49.050;8.530;2023-02-28T05:04:01;100734.66;;;-1.69
70389;BMP280;58659;49.050;8.530;2023-02-28T05:06:28;100722.31;;;-1.72
70389;BMP280;58659;49.050;8.530;2023-02-28T05:08:55;100736.00;;;-1.83
70389;BMP280;58659;49.050;8.530;2023-02-28T05:11:21;100733.13;;;-1.86
70389;BMP280;58659;49.050;8.530;2023-02-28T05:13:48;100732.56;;;-1.88
70389;BMP280;58659;49.050;8.530;2023-02-28T05:16:14;100733.28;;;-1.93
70389;BMP280;58659;49.050;8.530;2023-02-28T05:18:40;100726.84;;;-1.95
70389;BMP280;58659;49.050;8.530;2023-02-28T05:21:06;100723.00;;;-1.98
70389;BMP280;58659;49.050;8.530;2023-02-28T05:23:39;100733.53;;;-1.94
70389;BMP280;58659;49.050;8.530;2023-02-28T05:26:05;100728.94;;;-1.92
70389;BMP280;58659;49.050;8.530;2023-02-28T05:28:30;100740.25;;;-1.88
70389;BMP280;58659;49.050;8.530;2023-02-28T05:30:55;100743.47;;;-1.81
70389;BMP280;58659;49.050;8.530;2023-02-28T05:33:21;100742.19;;;-1.79
70389;BMP280;58659;49.050;8.530;2023-02-28T05:35:46;100731.19;;;-1.79
70389;BMP280;58659;49.050;8.530;2023-02-28T05:38:11;100733.81;;;-1.74
70389;BMP280;58659;49.050;8.530;2023-02-28T05:40:38;100739.72;;;-1.74
70389;BMP280;58659;49.050;8.530;2023-02-28T05:43:05;100740.00;;;-1.70
70389;BMP280;58659;49.050;8.530;2023-02-28T05:45:30;100746.06;;;-1.76
70389;BMP280;58659;49.050;8.530;2023-02-28T05:47:56;100745.63;;;-1.73
70389;BMP280;58659;49.050;8.530;2023-02-28T05:50:21;100740.50;;;-1.73
70389;BMP280;58659;49.050;8.530;2023-02-28T05:52:50;100751.31;;;-1.66
70389;BMP280;58659;49.050;8.530;2023-02-28T05:55:16;100748.53;;;-1.65
70389;BMP280;58659;49.050;8.530;2023-02-28T05:57:41;100744.22;;;-1.59
70389;BMP280;58659;49.050;8.530;2023-02-28T06:00:08;100739.41;;;-1.55
70389;BMP280;58659;49.050;8.530;2023-02-28T06:02:33;100747.94;;;-1.50
70389;BMP280;58659;49.050;8.530;2023-02-28T06:04:58;100746.44;;;-1.46
70389;BMP280;58659;49.050;8.530;2023-02-28T06:07:24;100740.53;;;-1.46
70389;BMP280;58659;49.050;8.530;2023-02-28T06:09:49;100738.78;;;-1.41
70389;BMP280;58659;49.050;8.530;2023-02-28T06:12:14;100737.06;;;-1.35
70389;BMP280;58659;49.050;8.530;2023-02-28T06:14:40;100738.06;;;-1.36
70389;BMP280;58659;49.050;8.530;2023-02-28T06:17:06;100740.88;;;-1.38
70389;BMP280;58659;49.050;8.530;2023-02-28T06:19:31;100745.84;;;-1.31
70389;BMP280;58659;49.050;8.530;2023-02-28T06:21:57;100738.91;;;-1.31
70389;BMP280;58659;49.050;8.530;2023-02-28T06:24:24;100755.19;;;-1.20
70389;BMP280;58659;49.050;8.530;2023-02-28T06:26:50;100750.31;;;-1.22
70389;BMP280;58659;49.050;8.530;2023-02-28T06:29:15;100756.47;;;-1.17
70389;BMP280;58659;49.050;8.530;2023-02-28T06:31:42;100755.97;;;-1.19
70389;BMP280;58659;49.050;8.530;2023-02-28T06:34:09;100759.25;;;-1.24
70389;BMP280;58659;49.050;8.530;2023-02-28T06:36:37;100761.63;;;-1.17
70389;BMP280;58659;49.050;8.530;2023-02-28T06:39:02;100753.91;;;-1.17
70389;BMP280;58659;49.050;8.530;2023-02-28T06:41:27;100763.22;;;-1.11
70389;BMP280;58659;49.050;8.530;2023-02-28T06:43:53;100761.47;;;-1.06
70389;BMP280;58659;49.050;8.530;2023-02-28T06:46:18;100761.25;;;-1.04
70389;BMP280;58659;49.050;8.530;2023-02-28T06:48:44;100779.47;;;-1.01
70389;BMP280;58659;49.050;8.530;2023-02-28T06:51:20;100784.91;;;-0.97
70389;BMP280;58659;49.050;8.530;2023-02-28T06:53:47;100781.38;;;-0.91
70389;BMP280;58659;49.050;8.530;2023-02-28T06:56:14;100783.97;;;-0.86
70389;BMP280;58659;49.050;8.530;2023-02-28T06:58:40;100779.84;;;-0.87
70389;BMP280;58659;49.050;8.530;2023-02-28T07:01:06;100796.63;;;-0.79
70389;BMP280;58659;49.050;8.530;2023-02-28T07:03:32;100788.88;;;-0.85
70389;BMP280;58659;49.050;8.530;2023-02-28T07:05:58;100795.56;;;-0.84
70389;BMP280;58659;49.050;8.530;2023-02-28T07:08:24;100786.59;;;-0.81
70389;BMP280;58659;49.050;8.530;2023-02-28T07:10:54;100793.84;;;-0.73
70389;BMP280;58659;49.050;8.530;2023-02-28T07:13:20;100804.16;;;-0.68
70389;BMP280;58659;49.050;8.530;2023-02-28T07:15:59;100796.50;;;-0.63
70389;BMP280;58659;49.050;8.530;2023-02-28T07:18:25;100800.56;;;-0.67
70389;BMP280;58659;49.050;8.530;2023-02-28T07:20:51;100806.47;;;-0.66
70389;BMP280;58659;49.050;8.530;2023-02-28T07:23:17;100805.22;;;-0.64
70389;BMP280;58659;49.050;8.530;2023-02-28T07:25:42;100804.69;;;-0.66
70389;BMP280;58659;49.050;8.530;2023-02-28T07:28:07;100811.91;;;-0.63
70389;BMP280;58659;49.050;8.530;2023-02-28T07:30:33;100808.84;;;-0.60
70389;BMP280;58659;49.050;8.530;2023-02-28T07:32:58;100812.75;;;-0.52
70389;BMP280;58659;49.050;8.530;2023-02-28T07:35:24;100811.25;;;-0.48
70389;BMP280;58659;49.050;8.530;2023-02-28T07:37:49;100811.53;;;-0.45
70389;BMP280;58659;49.050;8.530;2023-02-28T07:40:14;100815.13;;;-0.46
70389;BMP280;58659;49.050;8.530;2023-02-28T07:42:41;100825.41;;;-0.41
70389;BMP280;58659;49.050;8.530;2023-02-28T07:45:07;100819.84;;;-0.32
70389;BMP280;58659;49.050;8.530;2023-02-28T07:47:33;100811.19;;;-0.26
70389;BMP280;58659;49.050;8.530;2023-02-28T07:49:58;100819.44;;;-0.24
70389;BMP280;58659;49.050;8.530;2023-02-28T07:52:24;100820.91;;;-0.28
70389;BMP280;58659;49.050;8.530;2023-02-28T07:54:50;100820.91;;;-0.28
70389;BMP280;58659;49.050;8.530;2023-02-28T07:57:15;100814.28;;;-0.24
70389;BMP280;58659;49.050;8.530;2023-02-28T07:59:41;100818.16;;;-0.22
70389;BMP280;58659;49.050;8.530;2023-02-28T08:02:06;100826.19;;;-0.13
70389;BMP280;58659;49.050;8.530;2023-02-28T08:04:32;100825.06;;;-0.22
70389;BMP280;58659;49.050;8.530;2023-02-28T08:06:58;100811.50;;;-0.18
70389;BMP280;58659;49.050;8.530;2023-02-28T08:09:23;100825.88;;;-0.17
70389;BMP280;58659;49.050;8.530;2023-02-28T08:11:49;100827.75;;;-0.12
70389;BMP280;58659;49.050;8.530;2023-02-28T08:14:14;100832.38;;;-0.09
70389;BMP280;58659;49.050;8.530;2023-02-28T08:16:39;100822.66;;;-0.02
70389;BMP280;58659;49.050;8.530;2023-02-28T08:19:04;100834.31;;;0.11
70389;BMP280;58659;49.050;8.530;2023-02-28T08:21:30;100834.03;;;0.12
70389;BMP280;58659;49.050;8.530;2023-02-28T08:23:55;100828.38;;;0.10
70389;BMP280;58659;49.050;8.530;2023-02-28T08:26:22;100822.75;;;0.18
70389;BMP280;58659;49.050;8.530;2023-02-28T08:28:47;100811.50;;;0.24
70389;BMP280;58659;49.050;8.530;2023-02-28T08:31:14;100830.81;;;0.37
70389;BMP280;58659;49.050;8.530;2023-02-28T08:33:41;100837.81;;;0.47
70389;BMP280;58659;49.050;8.530;2023-02-28T08:38:33;100831.38;;;0.49
70389;BMP280;58659;49.050;8.530;2023-02-28T08:41:01;100831.38;;;0.49
70389;BMP280;58659;49.050;8.530;2023-02-28T08:43:27;100834.69;;;0.45
70389;BMP280;58659;49.050;8.530;2023-02-28T08:45:53;100838.59;;;0.52
70389;BMP280;58659;49.050;8.530;2023-02-28T08:48:19;100843.44;;;0.49
70389;BMP280;58659;49.050;8.530;2023-02-28T08:51:15;100844.28;;;0.59
70389;BMP280;58659;49.050;8.530;2023-02-28T08:53:41;100849.25;;;0.76
70389;BMP280;58659;49.050;8.530;2023-02-28T08:56:09;100848.78;;;0.89
70389;BMP280;58659;49.050;8.530;2023-02-28T08:58:35;100841.34;;;1.03
70389;BMP280;58659;49.050;8.530;2023-02-28T09:03:35;100849.06;;;1.08
70389;BMP280;58659;49.050;8.530;2023-02-28T09:06:01;100857.56;;;1.08
70389;BMP280;58659;49.050;8.530;2023-02-28T09:08:27;100848.81;;;1.09
70389;BMP280;58659;49.050;8.530;2023-02-28T09:10:53;100849.59;;;1.20
70389;BMP280;58659;49.050;8.530;2023-02-28T09:13:20;100844.75;;;1.23
70389;BMP280;58659;49.050;8.530;2023-02-28T09:15:45;100844.72;;;1.18
70389;BMP280;58659;49.050;8.530;2023-02-28T09:18:10;100845.44;;;0.94
70389;BMP280;58659;49.050;8.530;2023-02-28T09:20:40;100840.00;;;0.90
70389;BMP280;58659;49.050;8.530;2023-02-28T09:23:06;100847.78;;;1.05
70389;BMP280;58659;49.050;8.530;2023-02-28T09:25:33;100841.09;;;1.19
70389;BMP280;58659;49.050;8.530;2023-02-28T09:27:59;100849.38;;;1.27
70389;BMP280;58659;49.050;8.530;2023-02-28T09:30:25;100849.59;;;1.20
70389;BMP280;58659;49.050;8.530;2023-02-28T09:32:50;100843.19;;;1.22
70389;BMP280;58659;49.050;8.530;2023-02-28T09:35:19;100854.78;;;1.35
70389;BMP280;58659;49.050;8.530;2023-02-28T09:37:46;100837.28;;;1.42
70389;BMP280;58659;49.050;8.530;2023-02-28T09:40:12;100838.28;;;1.46
70389;BMP280;58659;49.050;8.530;2023-02-28T09:42:40;100841.38;;;1.68
70389;BMP280;58659;49.050;8.530;2023-02-28T09:45:13;100836.97;;;1.89
70389;BMP280;58659;49.050;8.530;2023-02-28T09:47:43;100842.09;;;2.09
70389;BMP280;58659;49.050;8.530;2023-02-28T09:50:41;100843.34;;;2.27
70389;BMP280;58659;49.050;8.530;2023-02-28T09:53:30;100834.25;;;2.35
70389;BMP280;58659;49.050;8.530;2023-02-28T09:56:10;100841.09;;;2.00
70389;BMP280;58659;49.050;8.530;2023-02-28T09:58:55;100838.78;;;1.94
70389;BMP280;58659;49.050;8.530;2023-02-28T10:04:28;100841.84;;;2.06
70389;BMP280;58659;49.050;8.530;2023-02-28T10:07:01;100845.72;;;1.93
70389;BMP280;58659;49.050;8.530;2023-02-28T10:09:33;100841.88;;;1.96
70389;BMP280;58659;49.050;8.530;2023-02-28T10:12:04;100838.75;;;1.99
70389;BMP280;58659;49.050;8.530;2023-02-28T10:14:32;100844.69;;;1.94
70389;BMP280;58659;49.050;8.530;2023-02-28T10:17:02;100844.41;;;2.06
70389;BMP280;58659;49.050;8.530;2023-02-28T10:22:29;100846.09;;;2.46
70389;BMP280;58659;49.050;8.530;2023-02-28T10:24:57;100856.41;;;2.56
70389;BMP280;58659;49.050;8.530;2023-02-28T10:27:31;100846.84;;;2.62
70389;BMP280;58659;49.050;8.530;2023-02-28T10:30:01;100849.69;;;2.55
70389;BMP280;58659;49.050;8.530;2023-02-28T10:32:32;100849.63;;;2.65
70389;BMP280;58659;49.050;8.530;2023-02-28T10:37:27;100859.72;;;2.57
70389;BMP280;58659;49.050;8.530;2023-02-28T10:39:53;100846.09;;;2.46
70389;BMP280;58659;49.050;8.530;2023-02-28T10:42:27;100854.38;;;2.38
70389;BMP280;58659;49.050;8.530;2023-02-28T10:47:33;100854.38;;;2.38
70389;BMP280;58659;49.050;8.530;2023-02-28T10:50:00;100853.81;;;2.51
70389;BMP280;58659;49.050;8.530;2023-02-28T10:52:39;100848.25;;;2.29
70389;BMP280;58659;49.050;8.530;2023-02-28T10:55:20;100859.53;;;2.38
70389;BMP280;58659;49.050;8.530;2023-02-28T10:57:46;100850.25;;;2.42
70389;BMP280;58659;49.050;8.530;2023-02-28T11:02:40;100849.97;;;2.48
70389;BMP280;58659;49.050;8.530;2023-02-28T11:08:16;100849.03;;;2.83
70389;BMP280;58659;49.050;8.530;2023-02-28T11:10:47;100850.00;;;2.92
70389;BMP280;58659;49.050;8.530;2023-02-28T11:13:17;100849.53;;;2.85
70389;BMP280;58659;49.050;8.530;2023-02-28T11:15:51;100846.34;;;2.93
70389;BMP280;58659;49.050;8.530;2023-02-28T11:18:24;100845.22;;;3.15
70389;BMP280;58659;49.050;8.530;2023-02-28T11:20:54;100826.25;;;3.24
70389;BMP280;58659;49.050;8.530;2023-02-28T11:23:21;100829.28;;;3.36
70389;BMP280;58659;49.050;8.530;2023-02-28T11:25:51;100835.28;;;3.61
70389;BMP280;58659;49.050;8.530;2023-02-28T11:28:35;100831.16;;;3.83
70389;BMP280;58659;49.050;8.530;2023-02-28T11:36:16;100823.88;;;3.91
70389;BMP280;58659;49.050;8.530;2023-02-28T11:38:43;100813.31;;;4.11
70389;BMP280;58659;49.050;8.530;2023-02-28T11:44:06;100823.88;;;4.33
70389;BMP280;58659;49.050;8.530;2023-02-28T11:51:49;100828.25;;;5.81
70389;BMP280;58659;49.050;8.530;2023-02-28T11:57:14;100825.34;;;6.23
70389;BMP280;58659;49.050;8.530;2023-02-28T12:10:18;100816.13;;;5.35
70389;BMP280;58659;49.050;8.530;2023-02-28T12:13:12;100810.66;;;5.23
70389;BMP280;58659;49.050;8.530;2023-02-28T12:27:40;100807.38;;;5.72
70389;BMP280;58659;49.050;8.530;2023-02-28T12:30:14;100804.09;;;6.43
70389;BMP280;58659;49.050;8.530;2023-02-28T12:32:45;100804.34;;;5.84
70389;BMP280;58659;49.050;8.530;2023-02-28T12:35:16;100807.69;;;5.98
70389;BMP280;58659;49.050;8.530;2023-02-28T12:38:04;100798.88;;;5.85
70389;BMP280;58659;49.050;8.530;2023-02-28T12:40:48;100808.56;;;5.80
70389;BMP280;58659;49.050;8.530;2023-02-28T12:43:17;100796.59;;;5.70
70389;BMP280;58659;49.050;8.530;2023-02-28T12:45:45;100800.97;;;5.97
70389;BMP280;58659;49.050;8.530;2023-02-28T12:48:18;100793.50;;;5.82
70389;BMP280;58659;49.050;8.530;2023-02-28T12:50:45;100796.31;;;6.21
70389;BMP280;58659;49.050;8.530;2023-02-28T12:53:17;100789.16;;;6.40
70389;BMP280;58659;49.050;8.530;2023-02-28T13:02:06;100784.34;;;5.84
70389;BMP280;58659;49.050;8.530;2023-02-28T13:05:16;100782.59;;;6.43
70389;BMP280;58659;49.050;8.530;2023-02-28T13:11:02;100764.31;;;6.48
70389;BMP280;58659;49.050;8.530;2023-02-28T13:13:29;100776.72;;;6.01
70389;BMP280;58659;49.050;8.530;2023-02-28T13:16:04;100775.72;;;5.61
70389;BMP280;58659;49.050;8.530;2023-02-28T13:18:48;100781.03;;;5.70
70389;BMP280;58659;49.050;8.530;2023-02-28T13:21:43;100782.53;;;6.56
70389;BMP280;58659;49.050;8.530;2023-02-28T13:24:10;100784.75;;;7.33
70389;BMP280;58659;49.050;8.530;2023-02-28T13:29:04;100788.88;;;6.95
70389;BMP280;58659;49.050;8.530;2023-02-28T13:47:29;100774.84;;;5.80
70389;BMP280;58659;49.050;8.530;2023-02-28T13:50:14;100788.03;;;5.70
70389;BMP280;58659;49.050;8.530;2023-02-28T14:06:29;100795.38;;;6.03
70389;BMP280;58659;49.050;8.530;2023-02-28T14:11:45;100785.78;;;7.15
70389;BMP280;58659;49.050;8.530;2023-02-28T14:17:16;100783.22;;;7.89
70389;BMP280;58659;49.050;8.530;2023-02-28T14:19:46;100792.44;;;7.95
70389;BMP280;58659;49.050;8.530;2023-02-28T14:22:58;100778.66;;;8.12
70389;BMP280;58659;49.050;8.530;2023-02-28T14:25:45;100778.66;;;8.20
70389;BMP280;58659;49.050;8.530;2023-02-28T14:30:52;100781.84;;;8.34
70389;BMP280;58659;49.050;8.530;2023-02-28T14:36:18;100788.56;;;7.67
70389;BMP280;58659;49.050;8.530;2023-02-28T14:38:54;100778.00;;;7.80
70389;BMP280;58659;49.050;8.530;2023-02-28T14:41:41;100775.41;;;7.89
70389;BMP280;58659;49.050;8.530;2023-02-28T14:46:54;100777.00;;;6.72
70389;BMP280;58659;49.050;8.530;2023-02-28T14:51:50;100775.81;;;5.84
70389;BMP280;58659;49.050;8.530;2023-02-28T14:54:26;100781.41;;;5.50
70389;BMP280;58659;49.050;8.530;2023-02-28T14:56:51;100776.78;;;5.74
70389;BMP280;58659;49.050;8.530;2023-02-28T15:01:51;100757.06;;;6.36
70389;BMP280;58659;49.050;8.530;2023-02-28T15:04:26;100768.72;;;6.47
70389;BMP280;58659;49.050;8.530;2023-02-28T15:07:13;100772.94;;;6.43
70389;BMP280;58659;49.050;8.530;2023-02-28T15:09:38;100774.09;;;6.15
70389;BMP280;58659;49.050;8.530;2023-02-28T15:12:04;100772.50;;;6.19
70389;BMP280;58659;49.050;8.530;2023-02-28T15:14:29;100773.06;;;6.02
70389;BMP280;58659;49.050;8.530;2023-02-28T15:17:02;100772.69;;;6.09
70389;BMP280;58659;49.050;8.530;2023-02-28T15:19:39;100781.63;;;6.03
70389;BMP280;58659;49.050;8.530;2023-02-28T15:22:12;100786.16;;;6.11
70389;BMP280;58659;49.050;8.530;2023-02-28T15:24:43;100787.88;;;6.02
70389;BMP280;58659;49.050;8.530;2023-02-28T15:27:14;100782.34;;;5.95
70389;BMP280;58659;49.050;8.530;2023-02-28T15:29:46;100775.91;;;5.79
70389;BMP280;58659;49.050;8.530;2023-02-28T15:32:37;100777.00;;;5.64
70389;BMP280;58659;49.050;8.530;2023-02-28T15:35:20;100785.91;;;5.72
70389;BMP280;58659;49.050;8.530;2023-02-28T15:37:57;100783.91;;;5.69
70389;BMP280;58659;49.050;8.530;2023-02-28T15:40:29;100778.31;;;5.61
70389;BMP280;58659;49.050;8.530;2023-02-28T15:43:15;100772.94;;;5.44
70389;BMP280;58659;49.050;8.530;2023-02-28T15:46:07;100768.22;;;5.33
70389;BMP280;58659;49.050;8.530;2023-02-28T15:48:53;100771.38;;;5.16
70389;BMP280;58659;49.050;8.530;2023-02-28T15:51:34;100781.94;;;5.06
70389;BMP280;58659;49.050;8.530;2023-02-28T15:54:05;100779.38;;;5.01
70389;BMP280;58659;49.050;8.530;2023-02-28T15:56:36;100779.16;;;4.84
70389;BMP280;58659;49.050;8.530;2023-02-28T15:59:06;100785.44;;;4.78
70389;BMP280;58659;49.050;8.530;2023-02-28T16:01:34;100780.28;;;4.78
70389;BMP280;58659;49.050;8.530;2023-02-28T16:04:19;100783.53;;;4.69
70389;BMP280;58659;49.050;8.530;2023-02-28T16:09:22;100775.34;;;4.62
70389;BMP280;58659;49.050;8.530;2023-02-28T16:11:50;100781.03;;;4.64
70389;BMP280;58659;49.050;8.530;2023-02-28T16:14:22;100786.22;;;4.59
70389;BMP280;58659;49.050;8.530;2023-02-28T16:16:54;100781.50;;;4.48
70389;BMP280;58659;49.050;8.530;2023-02-28T16:19:20;100785.34;;;4.50
70389;BMP280;58659;49.050;8.530;2023-02-28T16:21:46;100779.19;;;4.27
70389;BMP280;58659;49.050;8.530;2023-02-28T16:24:12;100775.59;;;4.23
70389;BMP280;58659;49.050;8.530;2023-02-28T16:26:40;100780.19;;;4.32
70389;BMP280;58659;49.050;8.530;2023-02-28T16:29:06;100779.91;;;4.33
70389;BMP280;58659;49.050;8.530;2023-02-28T16:31:35;100785.63;;;4.30
70389;BMP280;58659;49.050;8.530;2023-02-28T16:34:01;100791.34;;;4.27
70389;BMP280;58659;49.050;8.530;2023-02-28T16:36:26;100796.03;;;4.25
70389;BMP280;58659;49.050;8.530;2023-02-28T16:38:54;100791.34;;;4.08
70389;BMP280;58659;49.050;8.530;2023-02-28T16:41:22;100803.59;;;3.98
70389;BMP280;58659;49.050;8.530;2023-02-28T16:43:50;100796.78;;;3.83
70389;BMP280;58659;49.050;8.530;2023-02-28T16:46:17;100802.63;;;3.70
70389;BMP280;58659;49.050;8.530;2023-02-28T16:48:46;100803.78;;;3.54